sensor_id;sensor_type;location;lat;lon;timestamp;pressure;altitude;pressure_sealevel;temperature;humidity
41040;BME280;48586;50.122;18.972;2023-03-25T00:01:35;97440.72;;;13.20;57.37
41040;BME280;48586;50.122;18.972;2023-03-25T00:03:42;97443.66;;;13.18;57.46
41040;BME280;48586;50.122;18.972;2023-03-25T00:05:51;97446.88;;;13.15;57.25
41040;BME280;48586;50.122;18.972;2023-03-25T00:07:57;97453.34;;;13.09;57.75
41040;BME280;48586;50.122;18.972;2023-03-25T00:10:03;97450.16;;;12.97;58.02
41040;BME280;48586;50.122;18.972;2023-03-25T00:12:09;97441.06;;;12.98;58.04
41040;BME280;48586;50.122;18.972;2023-03-25T00:14:14;97443.78;;;12.93;58.17
41040;BME280;48586;50.122;18.972;2023-03-25T00:16:19;97456.34;;;12.92;58.35
41040;BME280;48586;50.122;18.972;2023-03-25T00:18:26;97447.53;;;12.92;58.46
41040;BME280;48586;50.122;18.972;2023-03-25T00:20:36;97447.78;;;12.90;58.69
41040;BME280;48586;50.122;18.972;2023-03-25T00:22:41;97453.41;;;12.89;58.75
41040;BME280;48586;50.122;18.972;2023-03-25T00:24:47;97450.72;;;12.84;59.01
41040;BME280;48586;50.122;18.972;2023-03-25T00:26:51;97445.91;;;12.81;59.14
41040;BME280;48586;50.122;18.972;2023-03-25T00:28:55;97454.22;;;12.79;59.31
41040;BME280;48586;50.122;18.972;2023-03-25T00:31:03;97440.03;;;12.79;59.08
41040;BME280;48586;50.122;18.972;2023-03-25T00:33:10;97454.75;;;12.76;59.59
41040;BME280;48586;50.122;18.972;2023-03-25T00:35:19;97447.00;;;12.74;59.63
41040;BME280;48586;50.122;18.972;2023-03-25T00:37:29;97446.47;;;12.72;59.58
41040;BME280;48586;50.122;18.972;2023-03-25T00:39:34;97451.53;;;12.74;59.55
41040;BME280;48586;50.122;18.972;2023-03-25T00:41:40;97451.78;;;12.77;59.75
41040;BME280;48586;50.122;18.972;2023-03-25T00:43:45;97449.94;;;12.83;59.70
41040;BME280;48586;50.122;18.972;2023-03-25T00:45:54;97442.72;;;12.84;59.58
41040;BME280;48586;50.122;18.972;2023-03-25T00:47:59;97434.69;;;12.84;59.66
41040;BME280;48586;50.122;18.972;2023-03-25T00:50:05;97440.84;;;12.84;59.42
41040;BME280;48586;50.122;18.972;2023-03-25T00:52:11;97445.91;;;12.81;59.85
41040;BME280;48586;50.122;18.972;2023-03-25T00:54:19;97449.94;;;12.73;59.79
41040;BME280;48586;50.122;18.972;2023-03-25T00:56:25;97440.34;;;12.67;59.95
41040;BME280;48586;50.122;18.972;2023-03-25T00:58:31;97450.75;;;12.68;60.11
41040;BME280;48586;50.122;18.972;2023-03-25T01:00:36;97447.81;;;12.65;60.33
41040;BME280;48586;50.122;18.972;2023-03-25T01:02:46;97445.44;;;12.63;60.25
41040;BME280;48586;50.122;18.972;2023-03-25T01:04:54;97443.84;;;12.62;60.44
41040;BME280;48586;50.122;18.972;2023-03-25T01:07:00;97440.38;;;12.62;60.52
41040;BME280;48586;50.122;18.972;2023-03-25T01:09:07;97445.44;;;12.58;60.70
41040;BME280;48586;50.122;18.972;2023-03-25T01:11:21;97447.03;;;12.59;60.73
41040;BME280;48586;50.122;18.972;2023-03-25T01:13:28;97448.63;;;12.60;60.80
41040;BME280;48586;50.122;18.972;2023-03-25T01:15:33;97447.56;;;12.61;60.79
41040;BME280;48586;50.122;18.972;2023-03-25T01:17:39;97456.38;;;12.67;60.60
41040;BME280;48586;50.122;18.972;2023-03-25T01:19:44;97450.25;;;12.66;60.71
41040;BME280;48586;50.122;18.972;2023-03-25T01:21:49;97451.28;;;12.65;60.84
41040;BME280;48586;50.122;18.972;2023-03-25T01:23:53;97450.25;;;12.66;60.78
41040;BME280;48586;50.122;18.972;2023-03-25T01:25:57;97455.84;;;12.65;60.86
41040;BME280;48586;50.122;18.972;2023-03-25T01:28:05;97446.22;;;12.64;60.93
41040;BME280;48586;50.122;18.972;2023-03-25T01:30:11;97451.03;;;12.67;60.67
41040;BME280;48586;50.122;18.972;2023-03-25T01:32:16;97449.44;;;12.66;60.85
41040;BME280;48586;50.122;18.972;2023-03-25T01:34:22;97444.09;;;12.66;61.02
41040;BME280;48586;50.122;18.972;2023-03-25T01:36:27;97443.84;;;12.62;61.03
41040;BME280;48586;50.122;18.972;2023-03-25T01:38:33;97440.88;;;12.64;61.08
41040;BME280;48586;50.122;18.972;2023-03-25T01:40:38;97439.81;;;12.65;60.97
41040;BME280;48586;50.122;18.972;2023-03-25T01:42:42;97435.53;;;12.69;61.04
41040;BME280;48586;50.122;18.972;2023-03-25T01:45:15;97432.31;;;12.72;60.81
41040;BME280;48586;50.122;18.972;2023-03-25T01:47:24;97442.19;;;12.71;60.26
41040;BME280;48586;50.122;18.972;2023-03-25T01:49:32;97444.63;;;12.68;59.62
41040;BME280;48586;50.122;18.972;2023-03-25T01:51:44;97434.75;;;12.63;59.67
41040;BME280;48586;50.122;18.972;2023-03-25T01:53:50;97431.78;;;12.65;59.40
41040;BME280;48586;50.122;18.972;2023-03-25T01:55:58;97432.03;;;12.68;58.60
41040;BME280;48586;50.122;18.972;2023-03-25T01:58:09;97432.03;;;12.73;58.06
41040;BME280;48586;50.122;18.972;2023-03-25T02:00:20;97425.63;;;12.74;56.90
41040;BME280;48586;50.122;18.972;2023-03-25T02:02:27;97440.03;;;12.73;56.98
41040;BME280;48586;50.122;18.972;2023-03-25T02:04:42;97452.09;;;12.71;56.85
41040;BME280;48586;50.122;18.972;2023-03-25T02:06:59;97449.41;;;12.71;56.37
41040;BME280;48586;50.122;18.972;2023-03-25T02:09:10;97453.72;;;12.67;56.27
41040;BME280;48586;50.122;18.972;2023-03-25T02:11:17;97456.63;;;12.65;55.87
41040;BME280;48586;50.122;18.972;2023-03-25T02:13:21;97463.84;;;12.65;56.00
41040;BME280;48586;50.122;18.972;2023-03-25T02:15:39;97470.56;;;12.62;55.08
41040;BME280;48586;50.122;18.972;2023-03-25T02:18:14;97476.97;;;12.56;54.53
41040;BME280;48586;50.122;18.972;2023-03-25T02:23:47;97482.59;;;12.49;54.51
41040;BME280;48586;50.122;18.972;2023-03-25T02:26:41;97476.69;;;12.47;54.15
41040;BME280;48586;50.122;18.972;2023-03-25T02:29:26;97467.91;;;12.57;54.14
41040;BME280;48586;50.122;18.972;2023-03-25T02:32:11;97466.81;;;12.63;53.77
41040;BME280;48586;50.122;18.972;2023-03-25T02:34:58;97462.00;;;12.60;53.18
41040;BME280;48586;50.122;18.972;2023-03-25T02:37:46;97463.09;;;12.54;53.13
41040;BME280;48586;50.122;18.972;2023-03-25T02:40:13;97466.56;;;12.55;53.51
41040;BME280;48586;50.122;18.972;2023-03-25T02:42:30;97472.41;;;12.57;54.38
41040;BME280;48586;50.122;18.972;2023-03-25T02:44:46;97468.44;;;12.54;54.48
41040;BME280;48586;50.122;18.972;2023-03-25T02:47:02;97474.81;;;12.48;54.88
41040;BME280;48586;50.122;18.972;2023-03-25T02:49:16;97480.72;;;12.35;55.17
41040;BME280;48586;50.122;18.972;2023-03-25T02:51:29;97478.31;;;12.18;56.19
41040;BME280;48586;50.122;18.972;2023-03-25T02:53:44;97476.47;;;11.98;57.60
41040;BME280;48586;50.122;18.972;2023-03-25T02:55:57;97488.19;;;11.82;58.36
41040;BME280;48586;50.122;18.972;2023-03-25T02:58:08;97487.06;;;11.67;60.03
41040;BME280;48586;50.122;18.972;2023-03-25T03:00:22;97478.78;;;11.59;59.95
41040;BME280;48586;50.122;18.972;2023-03-25T03:02:32;97478.22;;;11.51;60.02
41040;BME280;48586;50.122;18.972;2023-03-25T03:04:47;97489.94;;;11.45;60.74
41040;BME280;48586;50.122;18.972;2023-03-25T03:06:55;97485.13;;;11.42;59.47
41040;BME280;48586;50.122;18.972;2023-03-25T03:09:23;97486.44;;;11.40;59.73
41040;BME280;48586;50.122;18.972;2023-03-25T03:11:43;97488.84;;;11.36;59.69
41040;BME280;48586;50.122;18.972;2023-03-25T03:14:18;97497.38;;;11.33;59.88
41040;BME280;48586;50.122;18.972;2023-03-25T03:16:45;97504.56;;;11.33;59.88
41040;BME280;48586;50.122;18.972;2023-03-25T03:19:09;97504.81;;;11.31;59.67
41040;BME280;48586;50.122;18.972;2023-03-25T03:21:33;97500.03;;;11.33;60.00
41040;BME280;48586;50.122;18.972;2023-03-25T03:23:54;97506.16;;;11.34;60.56
41040;BME280;48586;50.122;18.972;2023-03-25T03:26:13;97500.28;;;11.32;60.42
41040;BME280;48586;50.122;18.972;2023-03-25T03:28:36;97501.63;;;11.29;59.75
41040;BME280;48586;50.122;18.972;2023-03-25T03:30:54;97500.81;;;11.29;59.71
41040;BME280;48586;50.122;18.972;2023-03-25T03:33:13;97499.22;;;11.28;59.46
41040;BME280;48586;50.122;18.972;2023-03-25T03:35:30;97499.72;;;11.24;59.82
41040;BME280;48586;50.122;18.972;2023-03-25T03:37:42;97502.63;;;11.23;60.13
41040;BME280;48586;50.122;18.972;2023-03-25T03:39:54;97498.13;;;11.23;60.39
41040;BME280;48586;50.122;18.972;2023-03-25T03:42:10;97501.84;;;11.22;60.47
41040;BME280;48586;50.122;18.972;2023-03-25T03:44:27;97500.53;;;11.20;60.44
41040;BME280;48586;50.122;18.972;2023-03-25T03:46:39;97498.06;;;11.13;59.58
41040;BME280;48586;50.122;18.972;2023-03-25T03:48:54;97506.84;;;11.09;60.03
41040;BME280;48586;50.122;18.972;2023-03-25T03:51:04;97504.47;;;11.07;60.36
41040;BME280;48586;50.122;18.972;2023-03-25T03:53:17;97508.19;;;11.06;60.56
41040;BME280;48586;50.122;18.972;2023-03-25T03:55:32;97503.09;;;11.05;61.12
41040;BME280;48586;50.122;18.972;2023-03-25T03:57:49;97495.63;;;11.01;60.76
41040;BME280;48586;50.122;18.972;2023-03-25T04:00:03;97492.94;;;11.01;60.79
41040;BME280;48586;50.122;18.972;2023-03-25T04:02:23;97502.28;;;10.99;60.46
41040;BME280;48586;50.122;18.972;2023-03-25T04:04:34;97499.06;;;10.97;60.82
41040;BME280;48586;50.122;18.972;2023-03-25T04:06:43;97507.59;;;10.94;60.29
41040;BME280;48586;50.122;18.972;2023-03-25T04:09:02;97507.31;;;10.90;60.26
41040;BME280;48586;50.122;18.972;2023-03-25T04:11:22;97500.88;;;10.86;60.25
41040;BME280;48586;50.122;18.972;2023-03-25T04:13:38;97500.31;;;10.84;60.02
41040;BME280;48586;50.122;18.972;2023-03-25T04:15:47;97494.19;;;10.84;60.10
41040;BME280;48586;50.122;18.972;2023-03-25T04:17:52;97498.50;;;10.85;60.51
41040;BME280;48586;50.122;18.972;2023-03-25T04:19:57;97503.28;;;10.88;60.68
41040;BME280;48586;50.122;18.972;2023-03-25T04:22:07;97501.41;;;10.88;60.13
41040;BME280;48586;50.122;18.972;2023-03-25T04:24:13;97502.75;;;10.86;59.75
41040;BME280;48586;50.122;18.972;2023-03-25T04:26:19;97504.84;;;10.84;59.68
41040;BME280;48586;50.122;18.972;2023-03-25T04:28:24;97509.09;;;10.80;59.75
41040;BME280;48586;50.122;18.972;2023-03-25T04:30:30;97518.63;;;10.70;59.81
41040;BME280;48586;50.122;18.972;2023-03-25T04:32:34;97521.25;;;10.65;60.04
41040;BME280;48586;50.122;18.972;2023-03-25T04:34:39;97528.66;;;10.58;59.77
41040;BME280;48586;50.122;18.972;2023-03-25T04:36:43;97536.91;;;10.57;60.66
41040;BME280;48586;50.122;18.972;2023-03-25T04:38:49;97529.19;;;10.55;60.39
41040;BME280;48586;50.122;18.972;2023-03-25T04:40:56;97530.78;;;10.56;60.43
41040;BME280;48586;50.122;18.972;2023-03-25T04:43:00;97536.13;;;10.56;60.24
41040;BME280;48586;50.122;18.972;2023-03-25T04:45:05;97531.31;;;10.58;59.91
41040;BME280;48586;50.122;18.972;2023-03-25T04:47:22;97529.22;;;10.60;59.92
41040;BME280;48586;50.122;18.972;2023-03-25T04:49:27;97526.56;;;10.60;60.09
41040;BME280;48586;50.122;18.972;2023-03-25T04:51:32;97529.75;;;10.62;60.29
41040;BME280;48586;50.122;18.972;2023-03-25T04:53:37;97534.28;;;10.62;59.75
41040;BME280;48586;50.122;18.972;2023-03-25T04:55:42;97534.81;;;10.59;59.68
41040;BME280;48586;50.122;18.972;2023-03-25T04:57:51;97536.63;;;10.53;59.78
41040;BME280;48586;50.122;18.972;2023-03-25T04:59:57;97528.59;;;10.48;59.87
41040;BME280;48586;50.122;18.972;2023-03-25T05:02:02;97531.22;;;10.43;59.95
41040;BME280;48586;50.122;18.972;2023-03-25T05:04:16;97521.31;;;10.38;60.00
41040;BME280;48586;50.122;18.972;2023-03-25T05:06:23;97525.56;;;10.39;60.03
41040;BME280;48586;50.122;18.972;2023-03-25T05:08:27;97538.09;;;10.39;60.05
41040;BME280;48586;50.122;18.972;2023-03-25T05:10:33;97531.41;;;10.36;60.26
41040;BME280;48586;50.122;18.972;2023-03-25T05:12:39;97532.72;;;10.34;60.64
41040;BME280;48586;50.122;18.972;2023-03-25T05:14:44;97542.56;;;10.33;61.28
41040;BME280;48586;50.122;18.972;2023-03-25T05:16:49;97540.16;;;10.32;61.38
41040;BME280;48586;50.122;18.972;2023-03-25T05:18:56;97533.78;;;10.33;61.50
41040;BME280;48586;50.122;18.972;2023-03-25T05:21:04;97535.63;;;10.32;60.88
41040;BME280;48586;50.122;18.972;2023-03-25T05:23:13;97543.59;;;10.32;61.22
41040;BME280;48586;50.122;18.972;2023-03-25T05:25:19;97534.59;;;10.33;60.97
41040;BME280;48586;50.122;18.972;2023-03-25T05:27:24;97540.19;;;10.37;61.07
41040;BME280;48586;50.122;18.972;2023-03-25T05:29:31;97549.53;;;10.39;61.23
41040;BME280;48586;50.122;18.972;2023-03-25T05:31:36;97553.56;;;10.42;61.17
41040;BME280;48586;50.122;18.972;2023-03-25T05:33:41;97556.53;;;10.45;61.18
41040;BME280;48586;50.122;18.972;2023-03-25T05:35:46;97555.53;;;10.52;60.68
41040;BME280;48586;50.122;18.972;2023-03-25T05:37:55;97547.56;;;10.57;60.64
41040;BME280;48586;50.122;18.972;2023-03-25T05:39:59;97547.06;;;10.60;60.71
41040;BME280;48586;50.122;18.972;2023-03-25T05:42:04;97544.44;;;10.65;60.41
41040;BME280;48586;50.122;18.972;2023-03-25T05:44:11;97544.72;;;10.68;60.40
41040;BME280;48586;50.122;18.972;2023-03-25T05:46:19;97546.63;;;10.73;60.06
41040;BME280;48586;50.122;18.972;2023-03-25T05:48:24;97544.78;;;10.79;60.45
41040;BME280;48586;50.122;18.972;2023-03-25T05:50:35;97547.53;;;10.89;60.25
41040;BME280;48586;50.122;18.972;2023-03-25T05:52:43;97552.88;;;10.94;60.04
41040;BME280;48586;50.122;18.972;2023-03-25T05:54:52;97555.06;;;11.02;59.98
41040;BME280;48586;50.122;18.972;2023-03-25T05:56:57;97552.94;;;11.04;60.26
41040;BME280;48586;50.122;18.972;2023-03-25T05:59:03;97553.75;;;11.05;59.86
41040;BME280;48586;50.122;18.972;2023-03-25T06:01:09;97543.63;;;11.07;59.69
41040;BME280;48586;50.122;18.972;2023-03-25T06:03:17;97554.03;;;11.08;59.44
41040;BME280;48586;50.122;18.972;2023-03-25T06:05:26;97550.84;;;11.06;59.71
41040;BME280;48586;50.122;18.972;2023-03-25T06:07:30;97560.44;;;11.07;59.80
41040;BME280;48586;50.122;18.972;2023-03-25T06:09:35;97568.16;;;11.09;60.05
41040;BME280;48586;50.122;18.972;2023-03-25T06:11:49;97563.31;;;11.06;60.02
41040;BME280;48586;50.122;18.972;2023-03-25T06:13:53;97562.28;;;11.07;59.58
41040;BME280;48586;50.122;18.972;2023-03-25T06:15:59;97567.09;;;11.10;60.01
41040;BME280;48586;50.122;18.972;2023-03-25T06:18:04;97570.84;;;11.14;59.90
41040;BME280;48586;50.122;18.972;2023-03-25T06:20:12;97570.13;;;11.23;59.23
41040;BME280;48586;50.122;18.972;2023-03-25T06:22:19;97569.34;;;11.28;59.18
41040;BME280;48586;50.122;18.972;2023-03-25T06:24:24;97569.34;;;11.33;58.72
41040;BME280;48586;50.122;18.972;2023-03-25T06:26:29;97571.25;;;11.38;58.69
41040;BME280;48586;50.122;18.972;2023-03-25T06:28:39;97575.81;;;11.47;58.63
41040;BME280;48586;50.122;18.972;2023-03-25T06:30:44;97572.13;;;11.54;58.83
41040;BME280;48586;50.122;18.972;2023-03-25T06:32:48;97576.13;;;11.66;58.52
41040;BME280;48586;50.122;18.972;2023-03-25T06:34:57;97573.28;;;11.78;57.95
41040;BME280;48586;50.122;18.972;2023-03-25T06:37:03;97573.56;;;11.82;58.02
41040;BME280;48586;50.122;18.972;2023-03-25T06:39:08;97579.97;;;11.81;58.50
41040;BME280;48586;50.122;18.972;2023-03-25T06:41:16;97581.56;;;11.82;58.27
41040;BME280;48586;50.122;18.972;2023-03-25T06:43:44;97591.16;;;11.83;58.93
41040;BME280;48586;50.122;18.972;2023-03-25T06:45:56;97584.00;;;11.93;58.92
41040;BME280;48586;50.122;18.972;2023-03-25T06:48:29;97587.75;;;11.92;58.69
41040;BME280;48586;50.122;18.972;2023-03-25T06:50:34;97582.41;;;11.92;58.60
41040;BME280;48586;50.122;18.972;2023-03-25T06:52:39;97589.63;;;11.97;58.74
41040;BME280;48586;50.122;18.972;2023-03-25T06:54:45;97588.56;;;12.03;58.52
41040;BME280;48586;50.122;18.972;2023-03-25T06:56:50;97592.31;;;12.07;58.59
41040;BME280;48586;50.122;18.972;2023-03-25T06:58:58;97578.41;;;12.05;57.58
41040;BME280;48586;50.122;18.972;2023-03-25T07:01:04;97585.38;;;12.06;57.75
41040;BME280;48586;50.122;18.972;2023-03-25T07:03:10;97587.25;;;12.11;56.67
41040;BME280;48586;50.122;18.972;2023-03-25T07:05:15;97576.56;;;12.06;56.76
41040;BME280;48586;50.122;18.972;2023-03-25T07:07:21;97575.22;;;12.08;56.45
41040;BME280;48586;50.122;18.972;2023-03-25T07:09:25;97570.97;;;12.17;56.63
41040;BME280;48586;50.122;18.972;2023-03-25T07:11:29;97566.97;;;12.20;55.15
41040;BME280;48586;50.122;18.972;2023-03-25T07:13:36;97564.03;;;12.26;55.28
41040;BME280;48586;50.122;18.972;2023-03-25T07:15:43;97561.38;;;12.32;54.78
41040;BME280;48586;50.122;18.972;2023-03-25T07:17:48;97558.72;;;12.37;54.56
41040;BME280;48586;50.122;18.972;2023-03-25T07:19:54;97550.97;;;12.40;53.81
41040;BME280;48586;50.122;18.972;2023-03-25T07:21:59;97552.03;;;12.49;53.98
41040;BME280;48586;50.122;18.972;2023-03-25T07:24:04;97552.03;;;12.60;53.10
41040;BME280;48586;50.122;18.972;2023-03-25T07:26:12;97548.56;;;12.74;52.88
41040;BME280;48586;50.122;18.972;2023-03-25T07:28:16;97546.94;;;12.84;52.57
41040;BME280;48586;50.122;18.972;2023-03-25T07:30:22;97549.09;;;12.92;52.30
41040;BME280;48586;50.122;18.972;2023-03-25T07:32:30;97544.78;;;13.01;51.43
41040;BME280;48586;50.122;18.972;2023-03-25T07:34:34;97551.44;;;13.04;50.94
41040;BME280;48586;50.122;18.972;2023-03-25T07:36:39;97545.06;;;13.05;49.70
41040;BME280;48586;50.122;18.972;2023-03-25T07:38:45;97551.69;;;13.17;50.16
41040;BME280;48586;50.122;18.972;2023-03-25T07:40:50;97541.75;;;13.28;50.64
41040;BME280;48586;50.122;18.972;2023-03-25T07:42:55;97533.91;;;13.47;51.35
41040;BME280;48586;50.122;18.972;2023-03-25T07:45:19;97534.44;;;13.54;49.41
41040;BME280;48586;50.122;18.972;2023-03-25T07:47:26;97529.59;;;13.56;48.83
41040;BME280;48586;50.122;18.972;2023-03-25T07:49:33;97538.44;;;13.57;48.99
41040;BME280;48586;50.122;18.972;2023-03-25T07:51:43;97530.41;;;13.51;48.63
41040;BME280;48586;50.122;18.972;2023-03-25T07:53:48;97537.97;;;13.44;48.27
41040;BME280;48586;50.122;18.972;2023-03-25T07:55:54;97543.34;;;13.39;48.76
41040;BME280;48586;50.122;18.972;2023-03-25T07:58:00;97545.19;;;13.39;49.57
41040;BME280;48586;50.122;18.972;2023-03-25T08:00:07;97546.81;;;13.35;48.77
41040;BME280;48586;50.122;18.972;2023-03-25T08:02:14;97546.56;;;13.26;48.84
41040;BME280;48586;50.122;18.972;2023-03-25T08:04:22;97551.44;;;13.19;48.55
41040;BME280;48586;50.122;18.972;2023-03-25T08:06:27;97537.00;;;13.15;49.13
41040;BME280;48586;50.122;18.972;2023-03-25T08:08:33;97541.31;;;13.00;48.53
41040;BME280;48586;50.122;18.972;2023-03-25T08:10:41;97542.66;;;12.93;48.87
41040;BME280;48586;50.122;18.972;2023-03-25T08:12:47;97532.25;;;12.96;49.80
41040;BME280;48586;50.122;18.972;2023-03-25T08:14:55;97538.91;;;12.94;50.28
41040;BME280;48586;50.122;18.972;2023-03-25T08:17:04;97536.50;;;12.97;49.31
41040;BME280;48586;50.122;18.972;2023-03-25T08:19:09;97541.59;;;12.94;48.93
41040;BME280;48586;50.122;18.972;2023-03-25T08:21:17;97536.22;;;12.99;48.24
41040;BME280;48586;50.122;18.972;2023-03-25T08:23:26;97546.66;;;12.95;47.87
41040;BME280;48586;50.122;18.972;2023-03-25T08:25:31;97538.91;;;13.09;48.32
41040;BME280;48586;50.122;18.972;2023-03-25T08:27:36;97544.16;;;13.30;48.17
41040;BME280;48586;50.122;18.972;2023-03-25T08:29:42;97530.19;;;13.48;48.52
41040;BME280;48586;50.122;18.972;2023-03-25T08:31:47;97538.06;;;13.73;48.80
41040;BME280;48586;50.122;18.972;2023-03-25T08:33:52;97539.13;;;13.78;47.43
41040;BME280;48586;50.122;18.972;2023-03-25T08:35:57;97538.31;;;13.77;46.48
41040;BME280;48586;50.122;18.972;2023-03-25T08:38:04;97529.47;;;13.82;46.63
41040;BME280;48586;50.122;18.972;2023-03-25T08:40:10;97537.00;;;13.80;46.13
41040;BME280;48586;50.122;18.972;2023-03-25T08:42:17;97531.31;;;13.86;46.40
41040;BME280;48586;50.122;18.972;2023-03-25T08:44:22;97532.59;;;13.99;46.22
41040;BME280;48586;50.122;18.972;2023-03-25T08:46:27;97520.25;;;14.03;45.64
41040;BME280;48586;50.122;18.972;2023-03-25T08:48:33;97516.94;;;14.16;45.17
41040;BME280;48586;50.122;18.972;2023-03-25T08:50:38;97513.16;;;14.22;44.87
41040;BME280;48586;50.122;18.972;2023-03-25T08:52:43;97526.28;;;14.24;44.02
41040;BME280;48586;50.122;18.972;2023-03-25T08:54:51;97514.81;;;14.18;43.87
41040;BME280;48586;50.122;18.972;2023-03-25T08:56:56;97512.63;;;14.25;44.88
41040;BME280;48586;50.122;18.972;2023-03-25T08:59:01;97507.13;;;14.41;45.14
41040;BME280;48586;50.122;18.972;2023-03-25T09:01:06;97512.13;;;14.53;43.97
41040;BME280;48586;50.122;18.972;2023-03-25T09:03:13;97519.69;;;14.45;44.55
41040;BME280;48586;50.122;18.972;2023-03-25T09:05:18;97526.22;;;14.29;44.01
41040;BME280;48586;50.122;18.972;2023-03-25T09:07:25;97524.34;;;14.30;44.72
41040;BME280;48586;50.122;18.972;2023-03-25T09:09:30;97533.22;;;14.30;44.75
41040;BME280;48586;50.122;18.972;2023-03-25T09:11:38;97516.06;;;14.31;44.47
41040;BME280;48586;50.122;18.972;2023-03-25T09:13:46;97527.03;;;14.30;45.20
41040;BME280;48586;50.122;18.972;2023-03-25T09:15:51;97525.56;;;14.13;44.99
41040;BME280;48586;50.122;18.972;2023-03-25T09:17:56;97515.44;;;14.05;45.38
41040;BME280;48586;50.122;18.972;2023-03-25T09:20:01;97502.59;;;14.02;45.18
41040;BME280;48586;50.122;18.972;2023-03-25T09:22:08;97505.25;;;14.07;46.47
41040;BME280;48586;50.122;18.972;2023-03-25T09:24:13;97524.78;;;14.13;45.59
41040;BME280;48586;50.122;18.972;2023-03-25T09:26:18;97518.56;;;14.17;44.63
41040;BME280;48586;50.122;18.972;2023-03-25T09:28:26;97509.84;;;14.36;45.12
41040;BME280;48586;50.122;18.972;2023-03-25T09:30:32;97502.50;;;14.52;44.12
41040;BME280;48586;50.122;18.972;2023-03-25T09:32:37;97498.34;;;14.64;42.94
41040;BME280;48586;50.122;18.972;2023-03-25T09:34:42;97493.06;;;14.83;42.79
41040;BME280;48586;50.122;18.972;2023-03-25T09:36:46;97511.81;;;14.83;41.71
41040;BME280;48586;50.122;18.972;2023-03-25T09:38:55;97501.25;;;14.97;42.37
41040;BME280;48586;50.122;18.972;2023-03-25T09:41:11;97497.09;;;15.10;41.78
41040;BME280;48586;50.122;18.972;2023-03-25T09:43:38;97502.75;;;15.08;41.14
41040;BME280;48586;50.122;18.972;2023-03-25T09:45:58;97491.00;;;15.04;41.57
41040;BME280;48586;50.122;18.972;2023-03-25T09:48:17;97491.50;;;15.06;41.49
41040;BME280;48586;50.122;18.972;2023-03-25T09:50:33;97493.94;;;15.03;41.00
41040;BME280;48586;50.122;18.972;2023-03-25T09:52:49;97495.25;;;15.05;41.35
41040;BME280;48586;50.122;18.972;2023-03-25T09:55:05;97474.69;;;15.19;41.84
41040;BME280;48586;50.122;18.972;2023-03-25T09:57:17;97481.03;;;15.29;41.12
41040;BME280;48586;50.122;18.972;2023-03-25T09:59:39;97464.81;;;15.39;41.00
41040;BME280;48586;50.122;18.972;2023-03-25T10:01:58;97457.94;;;15.70;41.76
41040;BME280;48586;50.122;18.972;2023-03-25T10:04:41;97453.88;;;15.92;39.35
41040;BME280;48586;50.122;18.972;2023-03-25T10:07:04;97451.25;;;16.06;39.39
41040;BME280;48586;50.122;18.972;2023-03-25T10:09:37;97438.56;;;16.25;39.38
41040;BME280;48586;50.122;18.972;2023-03-25T10:11:58;97457.19;;;16.35;37.66
41040;BME280;48586;50.122;18.972;2023-03-25T10:14:20;97438.72;;;16.47;36.93
41040;BME280;48586;50.122;18.972;2023-03-25T10:16:44;97428.50;;;16.63;35.91
41040;BME280;48586;50.122;18.972;2023-03-25T10:19:18;97440.63;;;16.74;36.08
41040;BME280;48586;50.122;18.972;2023-03-25T10:21:46;97442.31;;;16.57;35.31
41040;BME280;48586;50.122;18.972;2023-03-25T10:24:05;97435.25;;;16.47;36.10
41040;BME280;48586;50.122;18.972;2023-03-25T10:26:26;97437.53;;;16.07;38.32
41040;BME280;48586;50.122;18.972;2023-03-25T10:28:40;97446.97;;;15.48;46.24
41040;BME280;48586;50.122;18.972;2023-03-25T10:30:53;97448.03;;;14.56;54.50
41040;BME280;48586;50.122;18.972;2023-03-25T10:33:07;97446.41;;;13.97;54.09
41040;BME280;48586;50.122;18.972;2023-03-25T10:35:23;97446.59;;;13.66;58.22
41040;BME280;48586;50.122;18.972;2023-03-25T10:37:34;97440.81;;;13.49;58.03
41040;BME280;48586;50.122;18.972;2023-03-25T10:39:43;97439.31;;;13.33;54.88
41040;BME280;48586;50.122;18.972;2023-03-25T10:41:54;97439.88;;;13.24;52.62
41040;BME280;48586;50.122;18.972;2023-03-25T10:44:07;97436.38;;;13.29;54.80
41040;BME280;48586;50.122;18.972;2023-03-25T10:46:18;97425.31;;;13.46;52.93
41040;BME280;48586;50.122;18.972;2023-03-25T10:48:35;97425.84;;;13.87;54.05
41040;BME280;48586;50.122;18.972;2023-03-25T10:50:41;97427.41;;;14.28;50.17
41040;BME280;48586;50.122;18.972;2023-03-25T10:52:48;97428.84;;;14.73;46.15
41040;BME280;48586;50.122;18.972;2023-03-25T10:54:57;97421.66;;;15.16;44.31
41040;BME280;48586;50.122;18.972;2023-03-25T10:57:07;97421.66;;;15.54;43.67
41040;BME280;48586;50.122;18.972;2023-03-25T10:59:21;97420.91;;;15.86;44.82
41040;BME280;48586;50.122;18.972;2023-03-25T11:01:36;97426.19;;;16.10;41.32
41040;BME280;48586;50.122;18.972;2023-03-25T11:03:50;97425.63;;;16.27;39.95
41040;BME280;48586;50.122;18.972;2023-03-25T11:05:57;97417.69;;;16.36;39.08
41040;BME280;48586;50.122;18.972;2023-03-25T11:08:04;97419.22;;;16.42;39.12
41040;BME280;48586;50.122;18.972;2023-03-25T11:10:14;97422.59;;;16.47;38.99
41040;BME280;48586;50.122;18.972;2023-03-25T11:12:21;97424.47;;;16.47;37.04
41040;BME280;48586;50.122;18.972;2023-03-25T11:14:28;97422.47;;;16.39;36.98
41040;BME280;48586;50.122;18.972;2023-03-25T11:16:39;97417.41;;;16.37;36.80
41040;BME280;48586;50.122;18.972;2023-03-25T11:18:51;97417.91;;;16.39;36.62
41040;BME280;48586;50.122;18.972;2023-03-25T11:21:07;97424.16;;;16.35;36.11
41040;BME280;48586;50.122;18.972;2023-03-25T11:23:23;97428.22;;;16.32;34.97
41040;BME280;48586;50.122;18.972;2023-03-25T11:25:34;97423.63;;;16.33;34.14